createdAt,value
2019-03-06T00:02:09.973Z,3.93
2019-03-06T00:04:42.106Z,4.50
2019-03-06T00:07:14.229Z,3.47
2019-03-06T00:09:46.354Z,3.10
2019-03-06T00:12:18.511Z,4.23
2019-03-06T00:14:51.702Z,3.53
2019-03-06T00:17:23.847Z,3.60
2019-03-06T00:19:55.978Z,3.73
2019-03-06T00:22:28.113Z,3.60
2019-03-06T00:25:00.326Z,2.47
2019-03-06T00:27:32.466Z,4.20
2019-03-06T00:30:04.596Z,4.70
2019-03-06T00:32:36.734Z,4.70
2019-03-06T00:35:08.858Z,3.47
2019-03-06T00:37:40.991Z,4.37
2019-03-06T00:40:13.120Z,3.90
2019-03-06T00:42:45.248Z,3.60
2019-03-06T00:45:17.375Z,4.63
2019-03-06T00:47:49.520Z,3.17
2019-03-06T00:50:21.643Z,3.93
2019-03-06T00:52:53.769Z,2.97
2019-03-06T00:55:25.891Z,3.97
2019-03-06T00:57:58.029Z,3.63
2019-03-06T01:00:30.166Z,3.37
2019-03-06T01:03:02.287Z,4.80
2019-03-06T01:05:34.430Z,3.77
2019-03-06T01:08:06.555Z,3.90
2019-03-06T01:10:38.713Z,3.03
2019-03-06T01:13:10.842Z,6.30
2019-03-06T01:15:42.975Z,3.03
2019-03-06T01:18:15.123Z,3.77
2019-03-06T01:20:47.250Z,3.23
2019-03-06T01:23:19.387Z,3.93
2019-03-06T01:25:51.525Z,3.20
2019-03-06T01:28:23.656Z,4.43
2019-03-06T01:30:55.815Z,3.73
2019-03-06T01:33:27.926Z,6.27
2019-03-06T01:36:00.056Z,2.93
2019-03-06T01:38:32.195Z,3.00
2019-03-06T01:41:04.339Z,3.43
2019-03-06T01:43:36.479Z,3.77
2019-03-06T01:46:08.620Z,4.33
2019-03-06T01:48:40.768Z,1.97
2019-03-06T01:51:12.895Z,3.87
2019-03-06T01:53:46.019Z,3.43
2019-03-06T01:56:18.138Z,3.70
2019-03-06T01:58:50.270Z,3.93
2019-03-06T02:01:22.424Z,4.43
2019-03-06T02:03:54.551Z,3.17
2019-03-06T02:06:26.687Z,3.00
2019-03-06T02:08:58.834Z,5.60
2019-03-06T02:11:30.957Z,3.87
2019-03-06T02:14:03.081Z,4.57
2019-03-06T02:16:35.231Z,3.10
2019-03-06T02:19:07.355Z,3.37
2019-03-06T02:21:40.570Z,3.27
2019-03-06T02:24:12.695Z,3.27
2019-03-06T02:26:44.817Z,5.00
2019-03-06T02:29:16.962Z,4.43
2019-03-06T02:31:49.096Z,4.87
2019-03-06T02:34:21.227Z,2.63
2019-03-06T02:36:53.651Z,5.57
2019-03-06T02:39:25.793Z,4.63
2019-03-06T02:41:57.909Z,3.87
2019-03-06T02:44:30.042Z,4.60
2019-03-06T02:47:02.551Z,4.33
2019-03-06T02:49:34.689Z,4.07
2019-03-06T02:52:06.849Z,4.03
2019-03-06T02:54:38.974Z,3.47
2019-03-06T02:57:11.105Z,4.93
2019-03-06T02:59:43.235Z,3.97
2019-03-06T03:02:15.439Z,3.43
2019-03-06T03:04:47.576Z,3.63
2019-03-06T03:07:19.717Z,2.53
2019-03-06T03:09:51.846Z,3.83
2019-03-06T03:12:23.975Z,5.20
2019-03-06T03:14:56.137Z,4.33
2019-03-06T03:17:28.271Z,2.53
2019-03-06T03:20:00.402Z,2.53
2019-03-06T03:22:32.910Z,4.57
2019-03-06T03:25:05.038Z,3.77
2019-03-06T03:27:37.198Z,3.67
2019-03-06T03:30:09.329Z,2.37
2019-03-06T03:32:41.475Z,4.17
2019-03-06T03:35:13.599Z,4.03
2019-03-06T03:37:45.730Z,2.83
2019-03-06T03:40:17.951Z,5.77
2019-03-06T03:42:50.103Z,4.17
2019-03-06T03:45:22.261Z,2.80
2019-03-06T03:47:55.345Z,4.63
2019-03-06T03:50:27.776Z,4.37
2019-03-06T03:52:59.900Z,4.20
2019-03-06T03:55:32.059Z,3.70
2019-03-06T03:58:04.185Z,3.03
2019-03-06T04:00:36.307Z,5.03
2019-03-06T04:03:08.455Z,4.20
2019-03-06T04:05:40.578Z,3.63
2019-03-06T04:08:12.711Z,3.90
2019-03-06T04:10:44.859Z,3.97
2019-03-06T04:13:16.977Z,6.60
2019-03-06T04:15:49.106Z,4.50
2019-03-06T04:18:21.261Z,4.73
2019-03-06T04:20:53.400Z,3.87
2019-03-06T04:23:25.532Z,2.90
2019-03-06T04:25:57.659Z,4.30
2019-03-06T04:28:29.793Z,4.30
2019-03-06T04:31:01.942Z,4.60
2019-03-06T04:33:34.158Z,3.30
2019-03-06T04:36:06.279Z,3.50
2019-03-06T04:38:38.418Z,3.33
2019-03-06T04:41:10.546Z,3.53
2019-03-06T04:43:43.052Z,3.73
2019-03-06T04:46:15.198Z,3.20
2019-03-06T04:48:47.327Z,4.13
2019-03-06T04:51:19.452Z,5.93
2019-03-06T04:53:51.866Z,6.83
2019-03-06T04:56:24.000Z,16.53
2019-03-06T04:58:56.136Z,4.80
2019-03-06T05:01:28.259Z,7.40
2019-03-06T05:04:00.391Z,3.87
2019-03-06T05:06:32.525Z,8.07
2019-03-06T05:09:04.655Z,5.03
2019-03-06T05:11:38.067Z,7.67
2019-03-06T05:14:10.200Z,12.70
2019-03-06T05:16:42.334Z,9.53
2019-03-06T05:19:14.474Z,7.37
2019-03-06T05:21:46.611Z,6.97
2019-03-06T05:24:18.735Z,5.67
2019-03-06T05:26:50.878Z,6.97
2019-03-06T05:29:23.002Z,5.20
2019-03-06T05:31:55.450Z,4.80
2019-03-06T05:34:27.589Z,6.80
2019-03-06T05:36:59.716Z,4.93
2019-03-06T05:39:31.834Z,6.37
2019-03-06T05:42:03.980Z,6.87
2019-03-06T05:44:36.111Z,5.20
2019-03-06T05:47:08.228Z,5.20
2019-03-06T05:49:40.365Z,25.03
2019-03-06T05:52:12.493Z,3.67
2019-03-06T05:54:44.619Z,6.20
2019-03-06T05:57:16.771Z,5.87
2019-03-06T05:59:48.894Z,8.43
2019-03-06T06:02:21.016Z,5.20
2019-03-06T06:04:53.157Z,6.43
2019-03-06T06:07:25.284Z,3.50
2019-03-06T06:09:57.410Z,3.73
2019-03-06T06:12:29.555Z,5.37
2019-03-06T06:15:01.976Z,6.77
2019-03-06T06:17:34.182Z,5.27
2019-03-06T06:20:06.308Z,4.17
2019-03-06T06:22:38.432Z,5.07
2019-03-06T06:25:10.571Z,5.57
2019-03-06T06:27:42.693Z,3.27
2019-03-06T06:30:14.822Z,4.33
2019-03-06T06:32:46.962Z,6.27
2019-03-06T06:35:19.321Z,4.33
2019-03-06T06:37:51.442Z,4.70
2019-03-06T06:40:23.586Z,5.53
2019-03-06T06:42:55.712Z,4.43
2019-03-06T06:45:27.841Z,3.23
2019-03-06T06:47:59.978Z,6.50
2019-03-06T06:50:32.103Z,3.30
2019-03-06T06:53:04.228Z,4.83
2019-03-06T06:55:36.361Z,3.90
2019-03-06T06:58:08.485Z,4.00
2019-03-06T07:00:41.690Z,4.23
2019-03-06T07:03:13.813Z,2.97
2019-03-06T07:05:45.937Z,4.50
2019-03-06T07:08:18.076Z,4.17
2019-03-06T07:10:50.206Z,4.23
2019-03-06T07:13:22.351Z,3.53
2019-03-06T07:15:54.468Z,7.50
2019-03-06T07:18:26.591Z,4.57
2019-03-06T07:20:58.750Z,3.90
2019-03-06T07:23:30.877Z,4.53
2019-03-06T07:26:03.011Z,4.13
2019-03-06T07:28:35.141Z,9.60
2019-03-06T07:31:07.264Z,2.93
2019-03-06T07:33:39.395Z,4.27
2019-03-06T07:36:12.986Z,3.67
2019-03-06T07:38:45.109Z,3.73
2019-03-06T07:41:17.238Z,3.27
2019-03-06T07:43:49.353Z,6.77
2019-03-06T07:46:21.486Z,3.63
2019-03-06T07:48:53.609Z,3.80
2019-03-06T07:51:25.737Z,4.93
2019-03-06T07:53:57.876Z,3.50
2019-03-06T07:56:30.001Z,5.13
2019-03-06T07:59:02.132Z,3.43
2019-03-06T08:01:34.266Z,4.00
2019-03-06T08:04:06.390Z,3.27
2019-03-06T08:06:38.510Z,3.40
2019-03-06T08:09:10.647Z,5.20
2019-03-06T08:11:42.771Z,2.70
2019-03-06T08:14:22.028Z,5.40
2019-03-06T08:16:48.729Z,4.20
2019-03-06T08:19:21.826Z,3.10
2019-03-06T08:21:53.965Z,4.47
2019-03-06T08:24:26.364Z,1.53
2019-03-06T08:26:58.478Z,3.70
2019-03-06T08:29:30.617Z,3.53
2019-03-06T08:32:02.736Z,2.77
2019-03-06T08:34:35.134Z,4.87
2019-03-06T08:37:08.247Z,3.03
2019-03-06T08:39:41.337Z,3.67
2019-03-06T08:42:13.480Z,5.23
2019-03-06T08:44:45.785Z,3.83
2019-03-06T08:47:17.924Z,3.10
2019-03-06T08:49:50.053Z,4.20
2019-03-06T08:52:22.171Z,7.37
2019-03-06T08:54:55.546Z,2.87
2019-03-06T08:57:27.666Z,3.23
2019-03-06T08:59:59.789Z,4.37
2019-03-06T09:02:31.916Z,5.17
2019-03-06T09:05:04.237Z,4.83
2019-03-06T09:07:36.350Z,3.53
2019-03-06T09:10:08.497Z,4.47
2019-03-06T09:12:40.610Z,3.30
2019-03-06T09:15:13.818Z,6.20
2019-03-06T09:17:45.936Z,4.70
2019-03-06T09:20:18.060Z,4.30
2019-03-06T09:22:50.205Z,6.17
2019-03-06T09:25:22.335Z,3.97
2019-03-06T09:27:54.462Z,3.97
2019-03-06T09:30:26.585Z,3.40
2019-03-06T09:32:58.713Z,3.90
2019-03-06T09:35:30.859Z,2.67
2019-03-06T09:38:10.743Z,5.07
2019-03-06T09:40:37.088Z,4.23
2019-03-06T09:43:09.212Z,2.97
2019-03-06T09:45:41.628Z,5.13
2019-03-06T09:48:13.756Z,2.50
2019-03-06T09:50:45.880Z,3.43
2019-03-06T09:53:18.077Z,4.43
2019-03-06T09:55:50.146Z,3.40
2019-03-06T09:58:22.271Z,3.90
2019-03-06T10:00:54.390Z,3.03
2019-03-06T10:03:26.519Z,3.43
2019-03-06T10:05:59.425Z,5.40
2019-03-06T10:08:31.485Z,2.97
2019-03-06T10:11:03.600Z,2.47
2019-03-06T10:13:41.690Z,2.93
2019-03-06T10:16:09.558Z,4.33
2019-03-06T10:18:41.692Z,3.40
2019-03-06T10:21:13.820Z,3.07
2019-03-06T10:23:45.993Z,4.67
2019-03-06T10:26:18.120Z,4.03
2019-03-06T10:28:50.260Z,4.00
2019-03-06T10:31:22.678Z,3.50
2019-03-06T10:33:54.798Z,3.07
2019-03-06T10:36:26.920Z,3.40
2019-03-06T10:38:59.073Z,2.47
2019-03-06T10:41:31.185Z,2.77
2019-03-06T10:44:03.323Z,2.40
2019-03-06T10:46:35.466Z,3.80
2019-03-06T10:49:07.588Z,3.53
2019-03-06T10:51:39.720Z,2.80
2019-03-06T10:54:11.861Z,2.63
2019-03-06T10:56:44.249Z,3.87
2019-03-06T10:59:16.371Z,3.07
2019-03-06T11:01:48.513Z,5.80
2019-03-06T11:04:20.636Z,3.13
2019-03-06T11:06:52.763Z,3.33
2019-03-06T11:09:24.908Z,1.47
2019-03-06T11:11:57.043Z,3.90
2019-03-06T11:14:29.560Z,2.43
2019-03-06T11:17:01.687Z,3.50
2019-03-06T11:19:33.990Z,2.60
2019-03-06T11:22:06.138Z,3.07
2019-03-06T11:24:38.270Z,3.00
2019-03-06T11:27:11.379Z,5.30
2019-03-06T11:29:43.837Z,3.20
2019-03-06T11:32:15.968Z,11.27
2019-03-06T11:34:48.398Z,7.33
2019-03-06T11:37:20.523Z,6.47
2019-03-06T11:39:52.653Z,4.67
2019-03-06T11:42:24.808Z,10.00
2019-03-06T11:44:56.933Z,3.23
2019-03-06T11:47:30.048Z,3.93
2019-03-06T11:50:02.175Z,6.53
2019-03-06T11:52:35.386Z,4.00
2019-03-06T11:55:07.504Z,3.70
2019-03-06T11:57:41.081Z,5.13
2019-03-06T12:00:13.201Z,5.87
2019-03-06T12:02:45.418Z,5.53
2019-03-06T12:05:17.567Z,3.97
2019-03-06T12:07:49.686Z,7.77
2019-03-06T12:10:22.195Z,4.23
2019-03-06T12:12:54.337Z,3.47
2019-03-06T12:15:26.493Z,5.47
2019-03-06T12:17:58.590Z,3.37
2019-03-06T12:20:30.724Z,5.27
2019-03-06T12:23:03.124Z,3.13
2019-03-06T12:25:35.271Z,2.50
2019-03-06T12:28:07.391Z,2.80
2019-03-06T12:30:39.523Z,6.87
2019-03-06T12:33:11.657Z,4.37
2019-03-06T12:35:43.778Z,5.53
2019-03-06T12:38:15.901Z,4.67
2019-03-06T12:40:48.048Z,3.87
2019-03-06T12:43:20.176Z,4.43
2019-03-06T12:45:52.598Z,4.23
2019-03-06T12:48:24.729Z,2.47
2019-03-06T12:50:56.857Z,3.07
2019-03-06T12:53:28.989Z,3.43
2019-03-06T12:56:01.122Z,4.83
2019-03-06T12:58:33.255Z,5.73
2019-03-06T13:01:05.382Z,8.03
2019-03-06T13:03:38.477Z,6.73
2019-03-06T13:06:10.624Z,5.53
2019-03-06T13:11:16.654Z,8.60
2019-03-06T13:13:48.831Z,3.97
2019-03-06T13:16:20.952Z,3.23
2019-03-06T13:18:53.076Z,5.03
2019-03-06T13:21:25.209Z,7.57
2019-03-06T13:23:57.338Z,4.67
2019-03-06T13:26:30.451Z,5.07
2019-03-06T13:29:02.937Z,6.43
2019-03-06T13:31:35.150Z,5.97
2019-03-06T13:34:07.285Z,5.50
2019-03-06T13:36:39.435Z,12.50
2019-03-06T13:39:11.572Z,10.23
2019-03-06T13:41:43.970Z,5.87
2019-03-06T13:44:16.198Z,8.13
2019-03-06T13:46:48.340Z,15.27
2019-03-06T13:49:21.454Z,9.10
2019-03-06T13:51:53.581Z,8.40
2019-03-06T13:54:25.697Z,7.60
2019-03-06T13:56:57.845Z,5.77
2019-03-06T13:59:29.974Z,9.07
2019-03-06T14:02:02.100Z,4.63
2019-03-06T14:04:34.244Z,5.00
2019-03-06T14:07:06.384Z,5.77
2019-03-06T14:09:38.511Z,10.30
2019-03-06T14:12:10.657Z,5.77
2019-03-06T14:14:42.837Z,7.57
2019-03-06T14:17:14.945Z,10.23
2019-03-06T14:19:47.443Z,8.13
2019-03-06T14:22:19.580Z,11.10
2019-03-06T14:24:51.716Z,5.30
2019-03-06T14:27:23.886Z,5.83
2019-03-06T14:29:55.972Z,4.17
2019-03-06T14:32:28.191Z,8.03
2019-03-06T14:35:00.343Z,5.13
2019-03-06T14:37:32.429Z,4.47
2019-03-06T14:40:10.038Z,4.93
2019-03-06T14:42:38.643Z,3.60
2019-03-06T14:45:10.791Z,6.53
2019-03-06T14:47:42.905Z,3.93
2019-03-06T14:50:15.031Z,3.70
2019-03-06T14:52:47.172Z,5.23
2019-03-06T14:55:19.672Z,3.13
2019-03-06T14:57:52.974Z,6.63
2019-03-06T15:00:25.129Z,3.50
2019-03-06T15:02:57.251Z,4.30
2019-03-06T15:05:29.367Z,3.20
2019-03-06T15:08:02.054Z,4.70
2019-03-06T15:10:42.534Z,4.63
2019-03-06T15:13:07.957Z,2.87
2019-03-06T15:15:40.098Z,4.20
2019-03-06T15:18:12.308Z,4.27
2019-03-06T15:20:45.610Z,6.33
2019-03-06T15:23:17.740Z,3.57
2019-03-06T15:25:49.862Z,3.97
2019-03-06T15:28:21.989Z,4.97
2019-03-06T15:30:54.160Z,6.43
2019-03-06T15:33:26.270Z,7.67
2019-03-06T15:35:58.388Z,6.27
2019-03-06T15:38:30.522Z,4.97
2019-03-06T15:41:02.646Z,6.47
2019-03-06T15:43:34.770Z,6.70
2019-03-06T15:46:06.911Z,4.83
2019-03-06T15:48:39.029Z,8.80
2019-03-06T15:51:11.162Z,9.57
2019-03-06T15:53:43.580Z,13.33
2019-03-06T15:56:15.724Z,5.07
2019-03-06T15:58:47.918Z,4.40
2019-03-06T16:01:20.057Z,5.37
2019-03-06T16:03:52.178Z,4.50
2019-03-06T16:06:25.419Z,7.03
2019-03-06T16:08:57.635Z,3.83
2019-03-06T16:11:29.767Z,7.67
2019-03-06T16:14:01.895Z,4.03
2019-03-06T16:16:34.321Z,2.90
2019-03-06T16:19:06.440Z,7.47
2019-03-06T16:21:38.587Z,4.67
2019-03-06T16:24:10.710Z,6.30
2019-03-06T16:26:42.834Z,3.63
2019-03-06T16:29:14.976Z,5.27
2019-03-06T16:31:47.095Z,8.77
2019-03-06T16:34:19.233Z,5.60
2019-03-06T16:36:51.356Z,5.57
2019-03-06T16:39:23.984Z,3.30
2019-03-06T16:41:56.117Z,5.07
2019-03-06T16:44:28.232Z,5.93
2019-03-06T16:47:06.657Z,4.17
2019-03-06T16:49:34.193Z,4.23
2019-03-06T16:52:06.325Z,4.23
2019-03-06T16:54:38.456Z,5.27
2019-03-06T16:57:10.620Z,9.57
2019-03-06T16:59:43.811Z,7.17
2019-03-06T17:02:16.035Z,20.13
2019-03-06T17:04:48.167Z,14.80
2019-03-06T17:07:20.286Z,8.13
2019-03-06T17:09:52.426Z,21.10
2019-03-06T17:12:24.561Z,10.43
2019-03-06T17:14:56.691Z,13.37
2019-03-06T17:17:28.826Z,15.43
2019-03-06T17:20:00.960Z,12.50
2019-03-06T17:22:33.146Z,19.17
2019-03-06T17:25:05.288Z,17.10
2019-03-06T17:27:37.416Z,19.57
2019-03-06T17:30:09.552Z,24.87
2019-03-06T17:32:41.700Z,21.80
2019-03-06T17:35:13.823Z,20.57
2019-03-06T17:37:46.221Z,22.47
2019-03-06T17:40:18.368Z,26.63
2019-03-06T17:42:50.489Z,21.13
2019-03-06T17:45:22.619Z,19.97
2019-03-06T17:47:54.759Z,22.50
2019-03-06T17:50:26.900Z,27.70
2019-03-06T17:52:59.026Z,15.63
2019-03-06T17:55:31.169Z,16.53
2019-03-06T17:58:03.297Z,19.43
2019-03-06T18:00:35.438Z,26.70
2019-03-06T18:03:07.579Z,19.90
2019-03-06T18:05:39.739Z,26.67
2019-03-06T18:08:11.854Z,18.93
2019-03-06T18:10:43.985Z,18.47
2019-03-06T18:13:16.500Z,16.43
2019-03-06T18:15:48.623Z,22.70
2019-03-06T18:18:20.749Z,18.47
2019-03-06T18:20:52.885Z,16.57
2019-03-06T18:23:25.016Z,16.03
2019-03-06T18:25:57.157Z,12.23
2019-03-06T18:28:29.311Z,17.83
2019-03-06T18:31:01.427Z,15.57
2019-03-06T18:33:33.560Z,13.10
2019-03-06T18:36:05.700Z,14.03
2019-03-06T18:38:37.834Z,12.80
2019-03-06T18:41:09.971Z,13.10
2019-03-06T18:43:42.106Z,14.30
2019-03-06T18:46:14.230Z,21.63
2019-03-06T18:48:46.383Z,13.70
2019-03-06T18:51:18.514Z,20.63
2019-03-06T18:53:50.639Z,12.07
2019-03-06T18:56:22.786Z,20.23
2019-03-06T18:58:54.911Z,17.07
2019-03-06T19:01:27.318Z,12.97
2019-03-06T19:03:59.461Z,12.80
2019-03-06T19:06:31.590Z,14.20
2019-03-06T19:09:03.728Z,20.70
2019-03-06T19:11:36.340Z,12.77
2019-03-06T19:14:08.539Z,17.63
2019-03-06T19:16:40.667Z,21.13
2019-03-06T19:19:12.799Z,13.23
2019-03-06T19:21:44.952Z,26.97
2019-03-06T19:24:17.085Z,14.17
2019-03-06T19:26:49.207Z,12.23
2019-03-06T19:29:24.558Z,10.17
2019-03-06T19:31:56.686Z,9.30
2019-03-06T19:34:28.830Z,16.03
2019-03-06T19:37:01.243Z,8.80
2019-03-06T19:39:33.365Z,10.10
2019-03-06T19:42:05.513Z,12.80
2019-03-06T19:44:37.641Z,11.33
2019-03-06T19:47:09.760Z,10.97
2019-03-06T19:49:42.205Z,11.17
2019-03-06T19:52:14.337Z,9.97
2019-03-06T19:54:46.457Z,9.13
2019-03-06T19:57:18.585Z,8.00
2019-03-06T19:59:50.713Z,8.80
2019-03-06T20:02:23.062Z,6.77
2019-03-06T20:04:56.811Z,9.63
2019-03-06T20:07:28.931Z,13.03
2019-03-06T20:10:01.057Z,8.17
2019-03-06T20:12:33.274Z,7.90
2019-03-06T20:15:05.408Z,7.17
2019-03-06T20:17:37.527Z,10.10
2019-03-06T20:20:09.657Z,8.97
2019-03-06T20:22:41.789Z,6.77
2019-03-06T20:25:13.910Z,5.50
2019-03-06T20:27:47.658Z,7.97
2019-03-06T20:30:19.785Z,5.27
2019-03-06T20:32:57.008Z,8.30
2019-03-06T20:35:28.949Z,6.90
2019-03-06T20:38:01.470Z,6.23
2019-03-06T20:40:33.597Z,5.87
2019-03-06T20:43:05.738Z,5.37
2019-03-06T20:45:37.902Z,7.03
2019-03-06T20:48:11.825Z,8.17
2019-03-06T20:50:44.039Z,7.10
2019-03-06T20:53:16.234Z,6.73
2019-03-06T20:55:48.365Z,7.60
2019-03-06T20:58:20.526Z,4.50
2019-03-06T21:00:52.643Z,9.50
2019-03-06T21:03:25.147Z,5.37
2019-03-06T21:05:57.282Z,7.77
2019-03-06T21:08:29.406Z,8.57
2019-03-06T21:11:01.532Z,7.77
2019-03-06T21:13:33.683Z,6.53
2019-03-06T21:16:05.813Z,6.43
2019-03-06T21:18:37.955Z,6.53
2019-03-06T21:21:10.085Z,5.27
2019-03-06T21:23:42.215Z,7.23
2019-03-06T21:26:14.384Z,5.80
2019-03-06T21:28:46.490Z,8.53
2019-03-06T21:31:18.626Z,5.47
2019-03-06T21:33:50.764Z,5.40
2019-03-06T21:36:22.886Z,8.20
2019-03-06T21:38:55.023Z,10.13
2019-03-06T21:41:27.160Z,11.80
2019-03-06T21:43:59.579Z,6.90
2019-03-06T21:46:31.717Z,10.97
2019-03-06T21:49:03.839Z,10.47
2019-03-06T21:51:35.984Z,5.00
2019-03-06T21:54:08.106Z,7.77
2019-03-06T21:56:40.506Z,5.13
2019-03-06T21:59:12.634Z,6.87
2019-03-06T22:01:44.765Z,7.13
2019-03-06T22:04:16.888Z,3.87
2019-03-06T22:06:49.033Z,4.43
2019-03-06T22:09:22.495Z,5.33
2019-03-06T22:11:54.623Z,5.20
2019-03-06T22:14:26.743Z,5.00
2019-03-06T22:16:58.869Z,7.43
2019-03-06T22:19:31.736Z,6.33
2019-03-06T22:22:03.898Z,5.63
2019-03-06T22:24:36.053Z,4.60
2019-03-06T22:27:08.170Z,7.30
2019-03-06T22:29:40.303Z,6.20
2019-03-06T22:32:12.731Z,6.10
2019-03-06T22:34:44.834Z,5.87
2019-03-06T22:37:16.963Z,4.77
2019-03-06T22:39:49.092Z,7.10
2019-03-06T22:42:21.212Z,4.10
2019-03-06T22:44:53.611Z,8.77
2019-03-06T22:47:25.754Z,6.73
2019-03-06T22:49:57.879Z,5.30
2019-03-06T22:52:30.974Z,6.53
2019-03-06T22:55:03.110Z,3.90
2019-03-06T22:57:35.231Z,4.57
2019-03-06T23:00:07.360Z,5.83
2019-03-06T23:02:41.067Z,3.47
2019-03-06T23:05:13.375Z,3.60
2019-03-06T23:07:45.775Z,7.73
2019-03-06T23:10:17.915Z,3.40
2019-03-06T23:12:50.045Z,4.77
2019-03-06T23:15:22.163Z,6.10
2019-03-06T23:17:54.311Z,5.03
2019-03-06T23:20:26.436Z,4.87
2019-03-06T23:22:58.565Z,5.40
2019-03-06T23:25:30.698Z,7.67
2019-03-06T23:28:02.831Z,8.23
2019-03-06T23:30:35.232Z,9.03
2019-03-06T23:33:07.367Z,6.87
2019-03-06T23:35:39.483Z,4.43
2019-03-06T23:38:11.604Z,3.67
2019-03-06T23:40:44.801Z,5.87
2019-03-06T23:43:16.932Z,6.30
2019-03-06T23:45:49.064Z,4.23
2019-03-06T23:48:21.200Z,6.93
2019-03-06T23:50:53.324Z,7.50
2019-03-06T23:53:27.144Z,4.77
2019-03-06T23:55:59.271Z,5.50
2019-03-06T23:58:31.393Z,6.83
